In Rescue
 
Open Full Screen Window  High Contrast Mode
July 25, 2021 6:41 AM CDT
Present Weather: Fog
Weather Information
Wind Direction
  ---
Wind Speed
  00 kt (0 mph)
Wind Gust
  00 kt (0 mph)
Altimeter
30.03 in
Visibility
1/4 SM
Temperature
13° C
55° F
Dewpoint
13° C
55° F
Humidity
100%
1hr Rain Fall
00.00 in.
24hr Rain Fall
00.00 in.
Sky Condition
VV @ 200 ft
LIFR

METAR KBBB 251141Z AUTO 00000KT 1/4SM FG VV002 13/13 A3003 RMK AO2

FAA Disclaimer: The data displayed is for advisory purposes only and is not to be used for flight planning or operations.